Terminal Aerodrome Forecast
Issued by NWS

Home | Current Version | Previous Version | Text Only | Print | Product List | Glossary On
Versions: 1 2 3 4 5 6 7 8 9 10 11 12 13 14 15 16 17 18 19 20 21 22 23 24 25 26 27 28 29 30 31 32 33 34 35 36 37 38 39 40
000
FTUS45 KBOU 282320
TAFAPA
TAF
KAPA 282320Z 2900/2924 28015KT P6SM FEW100
     FM290100 28008KT P6SM FEW100
     FM290300 24007KT P6SM FEW100
     FM290600 31007KT P6SM FEW080 SCT150
     FM290900 35012KT P6SM FEW080 SCT150
     FM291400 03014KT P6SM FEW080 SCT150
     FM291800 06008KT P6SM FEW080 SCT150=

USA.gov is the U.S. government's official web portal to all federal, state and local government web resources and services.